Jade — 9HVS8 — position and weather

sailwx.info

Track history (hours):
 
Tides and Currents Weather Stations Pressure Air Temp Water Temp Dewpoint Dewpoint Depression Visibility Wind Speed Wind Dir Waves Ship Positions

Jade

Last reported at 2015-Aug-27 16:33 UTC. Time now 2015-Aug-29 00:17 UTC.
Position N 50°50' W 001°20'.

Length 176 m; draft 9 m.

Type: Ship (hazmat cat C). MMSI: 256491000.

Date/timePositionNaut miles runAvg speedWind from/ knotsBaromVisibWave heightAir tempDewpointWater temp
2015-Aug-27 16:33N 50°50' W 001°20'5 5.1
2015-Aug-27 15:34N 50°46' W 001°15'1212.3
2015-Aug-27 14:34N 50°42' W 000°57'5 4.6
2015-Aug-27 13:34N 50°37' W 000°56'8 7.6
2015-Aug-27 12:34N 50°31' W 001°03'181 9.4
2015-Aug-26 17:24N 50°44' W 005°47'  
2015-Aug-19 01:33N 40°24' W 009°51'7111.9
2015-Aug-18 19:33N 39°13' W 009°51'1212.4
2015-Aug-18 18:33N 39°00' W 009°51'1212.3
2015-Aug-18 17:33N 38°48' W 009°51'1212.4
2015-Aug-18 16:33N 38°36' W 009°50'1212.3
2015-Aug-18 15:33N 38°24' W 009°46'1212.4
2015-Aug-18 14:33N 38°12' W 009°44'1312.8
2015-Aug-18 13:33N 37°59' W 009°40'1312.7
2015-Aug-18 12:33N 37°47' W 009°36'1412.3
2015-Aug-18 11:26N 37°34' W 009°31'1112.2
2015-Aug-18 10:33N 37°23' W 009°28'2512.5
2015-Aug-18 08:33N 36°59' W 009°21'2511.9
2015-Aug-18 06:30N 36°42' W 008°59'3213.4
2015-Aug-18 04:06N 36°32' W 008°20'1013.3
2015-Aug-18 03:22N 36°29' W 008°09'1113.5
2015-Aug-18 02:33N 36°25' W 007°56'  
Track history (hours):
 
Tides and Currents Weather Stations Pressure Air Temp Water Temp Dewpoint Dewpoint Depression Visibility Wind Speed Wind Dir Waves Ship Positions

Jade

Last reported at 2015-Aug-27 16:33 UTC. Time now 2015-Aug-29 00:17 UTC.
Position N 50°50' W 001°20'.

Length 176 m; draft 9 m.

Type: Ship (hazmat cat C). MMSI: 256491000.

Date/timePositionNaut miles runAvg speedWind from/ knotsBaromVisibWave heightAir tempDewpointWater temp
2015-Aug-27 16:33N 50°50' W 001°20'5 5.1
2015-Aug-27 15:34N 50°46' W 001°15'1212.3
2015-Aug-27 14:34N 50°42' W 000°57'5 4.6
2015-Aug-27 13:34N 50°37' W 000°56'8 7.6
2015-Aug-27 12:34N 50°31' W 001°03'181 9.4
2015-Aug-26 17:24N 50°44' W 005°47'  
2015-Aug-19 01:33N 40°24' W 009°51'7111.9
2015-Aug-18 19:33N 39°13' W 009°51'1212.4
2015-Aug-18 18:33N 39°00' W 009°51'1212.3
2015-Aug-18 17:33N 38°48' W 009°51'1212.4
2015-Aug-18 16:33N 38°36' W 009°50'1212.3
2015-Aug-18 15:33N 38°24' W 009°46'1212.4
2015-Aug-18 14:33N 38°12' W 009°44'1312.8
2015-Aug-18 13:33N 37°59' W 009°40'1312.7
2015-Aug-18 12:33N 37°47' W 009°36'1412.3
2015-Aug-18 11:26N 37°34' W 009°31'1112.2
2015-Aug-18 10:33N 37°23' W 009°28'2512.5
2015-Aug-18 08:33N 36°59' W 009°21'2511.9
2015-Aug-18 06:30N 36°42' W 008°59'3213.4
2015-Aug-18 04:06N 36°32' W 008°20'1013.3
2015-Aug-18 03:22N 36°29' W 008°09'1113.5
2015-Aug-18 02:33N 36°25' W 007°56'  

Dump ship's entire track history